Zhijiang, China
Current Conditions -  °F | °C
As of 4:00 PM on Monday 24 Nov 2014 (Local Time) from ZGKL Reporting Station
Scattered Clouds Scattered Clouds  
Wind Chill: 81°   Ceiling: Unl
Heat Index: 81°   Visibility: 6mi
Dew Point: 61°   Wind: 11mph
Humidity: 51%   Direction: 170°S
Pressure: 29.88"   Gusts: NA
Location:  27.45°N, 109.68°E
Report Text: ZGKL 240800Z 17005MPS 9999 FEW026 SCT043 27/16 Q1012 NOSIG
Loading
Personal Weather Stations






























Interactive Weather Map New forecast layout! Learn more

10-Day Weather Forecast

Advertisements
Track Severe Weather on mobile